createdAt,value
2019-05-07T00:01:14.030Z,11.40
2019-05-07T00:03:43.430Z,11.40
2019-05-07T00:06:12.854Z,11.40
2019-05-07T00:08:44.642Z,11.40
2019-05-07T00:11:13.456Z,11.30
2019-05-07T00:13:44.511Z,11.40
2019-05-07T00:16:14.155Z,11.30
2019-05-07T00:18:43.586Z,11.30
2019-05-07T00:21:13.034Z,11.20
2019-05-07T00:23:43.264Z,11.20
2019-05-07T00:26:13.309Z,11.10
2019-05-07T00:28:43.486Z,11.10
2019-05-07T00:31:13.378Z,11.00
2019-05-07T00:33:43.423Z,11.00
2019-05-07T00:36:37.069Z,11.00
2019-05-07T00:39:23.334Z,11.00
2019-05-07T00:42:05.452Z,11.10
2019-05-07T00:44:53.732Z,11.10
2019-05-07T00:47:23.182Z,11.10
2019-05-07T00:49:52.655Z,11.10
2019-05-07T00:52:22.528Z,11.10
2019-05-07T00:54:53.093Z,11.00
2019-05-07T00:57:23.009Z,11.00
2019-05-07T00:59:52.615Z,11.00
2019-05-07T01:02:23.394Z,11.00
2019-05-07T01:04:53.348Z,10.90
2019-05-07T01:07:23.172Z,11.00
2019-05-07T01:09:52.628Z,11.00
2019-05-07T01:12:22.314Z,10.90
2019-05-07T01:14:52.862Z,10.90
2019-05-07T01:17:22.872Z,11.00
2019-05-07T01:19:53.275Z,11.00
2019-05-07T01:22:22.879Z,11.00
2019-05-07T01:24:53.165Z,11.00
2019-05-07T01:27:22.809Z,10.90
2019-05-07T01:29:52.908Z,11.00
2019-05-07T01:32:28.520Z,11.00
2019-05-07T01:35:05.381Z,11.00
2019-05-07T01:37:34.780Z,11.00
2019-05-07T01:40:04.347Z,11.00
2019-05-07T01:42:36.472Z,11.00
2019-05-07T01:45:05.676Z,11.00
2019-05-07T01:47:35.115Z,11.00
2019-05-07T01:50:04.495Z,11.00
2019-05-07T01:52:33.865Z,10.90
2019-05-07T01:55:03.469Z,10.90
2019-05-07T01:57:33.057Z,11.00
2019-05-07T02:00:02.780Z,11.00
2019-05-07T02:02:42.580Z,11.00
2019-05-07T02:05:32.637Z,11.00
2019-05-07T02:08:04.436Z,11.00
2019-05-07T02:10:46.883Z,11.00
2019-05-07T02:13:16.287Z,11.00
2019-05-07T02:15:57.434Z,10.90
2019-05-07T02:18:16.763Z,10.90
2019-05-07T02:20:46.225Z,10.90
2019-05-07T02:23:15.607Z,10.90
2019-05-07T02:25:44.983Z,10.90
2019-05-07T02:28:14.411Z,10.90
2019-05-07T02:30:44.691Z,10.90
2019-05-07T02:33:14.284Z,10.90
2019-05-07T02:35:44.115Z,10.90
2019-05-07T02:38:26.487Z,10.90
2019-05-07T02:41:05.299Z,10.90
2019-05-07T02:43:34.716Z,10.80
2019-05-07T02:46:31.161Z,10.80
2019-05-07T02:49:08.818Z,10.80
2019-05-07T02:51:48.258Z,10.70
2019-05-07T02:54:32.801Z,10.60
2019-05-07T02:57:03.326Z,10.60
2019-05-07T02:59:33.564Z,10.50
2019-05-07T03:02:04.027Z,10.50
2019-05-07T03:04:33.548Z,10.50
2019-05-07T03:07:03.947Z,10.50
2019-05-07T03:09:33.567Z,10.50
2019-05-07T03:12:04.004Z,10.50
2019-05-07T03:14:33.752Z,10.40
2019-05-07T03:17:03.317Z,10.30
2019-05-07T03:19:34.798Z,10.20
2019-05-07T03:22:04.268Z,10.10
2019-05-07T03:24:45.816Z,10.10
2019-05-07T03:27:15.503Z,10.10
2019-05-07T03:29:53.467Z,10.00
2019-05-07T03:32:36.666Z,10.00
2019-05-07T03:35:15.696Z,10.00
2019-05-07T03:37:44.089Z,10.00
2019-05-07T03:40:14.276Z,10.00
2019-05-07T03:42:44.339Z,10.00
2019-05-07T03:45:36.451Z,10.00
2019-05-07T03:48:16.789Z,10.00
2019-05-07T03:50:46.231Z,9.90
2019-05-07T03:53:15.596Z,9.90
2019-05-07T03:55:45.148Z,10.00
2019-05-07T03:58:14.976Z,9.90
2019-05-07T04:00:45.360Z,9.90
2019-05-07T04:03:19.074Z,9.80
2019-05-07T04:05:45.892Z,9.80
2019-05-07T04:08:15.332Z,9.80
2019-05-07T04:10:44.786Z,9.70
2019-05-07T04:13:14.194Z,9.70
2019-05-07T04:15:44.264Z,9.70
2019-05-07T04:18:14.345Z,9.70
2019-05-07T04:20:44.016Z,9.70
2019-05-07T04:23:14.272Z,9.70
2019-05-07T04:25:53.114Z,9.80
2019-05-07T04:28:28.150Z,9.80
2019-05-07T04:30:58.506Z,9.80
2019-05-07T04:33:33.290Z,9.80
2019-05-07T04:36:33.765Z,9.90
2019-05-07T04:39:03.001Z,10.00
2019-05-07T04:41:33.147Z,10.10
2019-05-07T04:44:03.830Z,10.30
2019-05-07T04:46:33.835Z,10.60
2019-05-07T04:49:03.995Z,11.00
2019-05-07T04:51:48.065Z,11.50
2019-05-07T04:54:17.554Z,12.10
2019-05-07T04:56:46.968Z,12.80
2019-05-07T04:59:16.423Z,13.50
2019-05-07T05:01:53.293Z,14.20
2019-05-07T05:04:30.160Z,15.00
2019-05-07T05:06:53.890Z,15.80
2019-05-07T05:09:23.601Z,16.20
2019-05-07T05:11:53.242Z,16.80
2019-05-07T05:14:23.007Z,17.50
2019-05-07T05:16:52.753Z,18.10
2019-05-07T05:19:22.995Z,18.40
2019-05-07T05:22:03.131Z,18.30
2019-05-07T05:24:36.319Z,18.10
2019-05-07T05:27:05.823Z,17.70
2019-05-07T05:29:36.492Z,17.40
2019-05-07T05:32:05.929Z,17.20
2019-05-07T05:34:35.343Z,17.00
2019-05-07T05:37:04.707Z,16.70
2019-05-07T05:39:34.177Z,16.50
2019-05-07T05:42:11.905Z,16.30
2019-05-07T05:44:41.789Z,16.10
2019-05-07T05:47:12.022Z,16.00
2019-05-07T05:49:42.850Z,15.70
2019-05-07T05:52:25.636Z,15.60
2019-05-07T05:55:16.744Z,15.50
2019-05-07T05:58:03.643Z,15.40
2019-05-07T06:01:10.038Z,15.30
2019-05-07T06:04:02.992Z,15.20
2019-05-07T06:06:36.616Z,15.10
2019-05-07T06:09:14.920Z,15.00
2019-05-07T06:12:04.526Z,15.00
2019-05-07T06:14:42.470Z,14.90
2019-05-07T06:17:32.055Z,14.90
2019-05-07T06:20:19.364Z,14.90
2019-05-07T06:23:06.192Z,14.90
2019-05-07T06:25:35.777Z,14.80
2019-05-07T06:28:05.169Z,14.80
2019-05-07T06:30:34.643Z,14.80
2019-05-07T06:33:04.082Z,14.90
2019-05-07T06:35:33.483Z,14.80
2019-05-07T06:38:04.337Z,14.80
2019-05-07T06:40:52.273Z,14.70
2019-05-07T06:43:29.376Z,14.70
2019-05-07T06:45:59.325Z,14.60
2019-05-07T06:48:40.866Z,14.50
2019-05-07T06:51:00.369Z,14.40
2019-05-07T06:53:33.428Z,14.30
2019-05-07T06:56:04.552Z,14.30
2019-05-07T06:58:48.411Z,14.20
2019-05-07T07:01:42.396Z,14.20
2019-05-07T07:04:42.724Z,14.10
2019-05-07T07:07:33.943Z,14.00
2019-05-07T07:10:17.678Z,14.00
2019-05-07T07:12:47.115Z,13.90
2019-05-07T07:15:16.834Z,13.90
2019-05-07T07:17:46.339Z,13.80
2019-05-07T07:20:15.767Z,13.80
2019-05-07T07:22:45.152Z,13.70
2019-05-07T07:25:14.638Z,13.70
2019-05-07T07:27:44.120Z,13.70
2019-05-07T07:30:29.362Z,13.70
2019-05-07T07:33:02.688Z,13.60
2019-05-07T07:35:32.205Z,13.50
2019-05-07T07:38:22.389Z,13.50
2019-05-07T07:41:03.015Z,13.50
2019-05-07T07:43:33.187Z,13.40
2019-05-07T07:46:02.645Z,13.30
2019-05-07T07:48:32.280Z,13.40
2019-05-07T07:51:03.230Z,13.40
2019-05-07T07:53:35.376Z,13.40
2019-05-07T07:56:28.679Z,13.40
2019-05-07T07:59:07.651Z,13.40
2019-05-07T08:01:57.223Z,13.40
2019-05-07T08:04:26.703Z,13.50
2019-05-07T08:07:05.036Z,13.50
2019-05-07T08:09:35.532Z,13.50
2019-05-07T08:12:05.318Z,13.60
2019-05-07T08:14:35.140Z,13.70
2019-05-07T08:17:06.907Z,13.80
2019-05-07T08:19:36.275Z,13.80
2019-05-07T08:22:05.770Z,13.90
2019-05-07T08:24:35.214Z,13.90
2019-05-07T08:27:04.969Z,14.00
2019-05-07T08:29:34.367Z,14.00
2019-05-07T08:32:32.673Z,14.00
2019-05-07T08:35:14.117Z,14.10
2019-05-07T08:37:42.795Z,14.10
2019-05-07T08:40:12.939Z,14.20
2019-05-07T08:42:42.491Z,14.20
2019-05-07T08:45:29.383Z,14.30
2019-05-07T08:48:02.091Z,14.30
2019-05-07T08:50:32.687Z,14.20
2019-05-07T08:53:02.852Z,14.30
2019-05-07T08:55:33.322Z,14.40
2019-05-07T08:58:02.829Z,14.50
2019-05-07T09:00:32.600Z,14.50
2019-05-07T09:03:02.076Z,14.40
2019-05-07T09:05:32.407Z,14.40
2019-05-07T09:08:02.227Z,14.50
2019-05-07T09:10:32.464Z,14.50
2019-05-07T09:13:02.752Z,14.50
2019-05-07T09:15:32.638Z,14.60
2019-05-07T09:18:02.173Z,14.80
2019-05-07T09:20:32.153Z,14.90
2019-05-07T09:23:02.240Z,14.90
2019-05-07T09:25:35.538Z,14.80
2019-05-07T09:28:05.067Z,14.90
2019-05-07T09:30:52.441Z,15.00
2019-05-07T09:33:31.898Z,15.10
2019-05-07T09:36:02.284Z,15.00
2019-05-07T09:38:32.767Z,15.00
2019-05-07T09:41:02.751Z,15.10
2019-05-07T09:43:32.626Z,15.00
2019-05-07T09:46:02.761Z,15.10
2019-05-07T09:48:33.785Z,15.10
2019-05-07T09:51:03.624Z,15.10
2019-05-07T09:53:33.037Z,15.20
2019-05-07T09:56:02.477Z,15.20
2019-05-07T09:58:36.504Z,15.30
2019-05-07T10:01:03.140Z,15.40
2019-05-07T10:03:32.601Z,15.50
2019-05-07T10:06:02.346Z,15.60
2019-05-07T10:08:32.643Z,15.60
2019-05-07T10:11:03.324Z,15.70
2019-05-07T10:13:37.555Z,15.80
2019-05-07T10:16:07.779Z,15.90
2019-05-07T10:18:37.304Z,16.10
2019-05-07T10:21:06.785Z,16.30
2019-05-07T10:23:36.316Z,16.30
2019-05-07T10:26:05.849Z,16.30
2019-05-07T10:28:35.398Z,16.30
2019-05-07T10:31:04.880Z,16.40
2019-05-07T10:33:34.335Z,16.50
2019-05-07T10:36:03.671Z,16.50
2019-05-07T10:38:33.077Z,16.60
2019-05-07T10:41:02.916Z,16.50
2019-05-07T10:43:32.811Z,16.50
2019-05-07T10:46:29.114Z,16.50
2019-05-07T10:49:04.247Z,16.50
2019-05-07T10:51:33.747Z,16.50
2019-05-07T10:54:03.146Z,16.50
2019-05-07T10:56:32.751Z,16.60
2019-05-07T10:59:03.018Z,16.60
2019-05-07T11:01:44.547Z,16.60
2019-05-07T11:04:13.999Z,16.70
2019-05-07T11:06:43.387Z,16.70
2019-05-07T11:09:12.805Z,16.70
2019-05-07T11:11:42.377Z,16.50
2019-05-07T11:14:12.327Z,16.40
2019-05-07T11:16:48.783Z,16.30
2019-05-07T11:19:19.070Z,16.10
2019-05-07T11:21:48.771Z,16.00
2019-05-07T11:24:18.170Z,16.00
2019-05-07T11:26:47.575Z,16.00
2019-05-07T11:29:16.933Z,16.00
2019-05-07T11:31:46.420Z,16.00
2019-05-07T11:34:15.851Z,15.90
2019-05-07T11:36:45.322Z,15.90
2019-05-07T11:39:14.786Z,15.90
2019-05-07T11:41:56.102Z,15.80
2019-05-07T11:44:27.856Z,15.80
2019-05-07T11:47:12.339Z,15.70
2019-05-07T11:49:59.702Z,15.70
2019-05-07T11:52:35.774Z,15.70
2019-05-07T11:55:05.064Z,15.80
2019-05-07T11:57:35.631Z,15.80
2019-05-07T12:00:06.330Z,15.90
2019-05-07T12:02:35.902Z,16.00
2019-05-07T12:05:05.590Z,16.00
2019-05-07T12:07:35.186Z,16.00
2019-05-07T12:10:05.079Z,16.00
2019-05-07T12:12:34.736Z,16.10
2019-05-07T12:15:04.445Z,16.20
2019-05-07T12:17:33.933Z,16.20
2019-05-07T12:20:03.362Z,16.30
2019-05-07T12:22:47.920Z,16.30
2019-05-07T12:25:18.261Z,16.20
2019-05-07T12:27:48.705Z,16.20
2019-05-07T12:30:27.904Z,16.30
2019-05-07T12:33:22.226Z,16.30
2019-05-07T12:35:52.467Z,16.30
2019-05-07T12:38:22.176Z,16.30
2019-05-07T12:40:52.383Z,16.40
2019-05-07T12:43:22.004Z,16.40
2019-05-07T12:45:52.416Z,16.40
2019-05-07T12:48:22.154Z,16.40
2019-05-07T12:50:52.249Z,16.40
2019-05-07T12:53:42.428Z,16.40
2019-05-07T12:56:11.847Z,16.40
2019-05-07T12:58:42.363Z,16.40
2019-05-07T13:01:22.108Z,16.50
2019-05-07T13:03:59.825Z,16.60
2019-05-07T13:06:29.294Z,16.70
2019-05-07T13:08:58.774Z,16.80
2019-05-07T13:11:28.238Z,16.80
2019-05-07T13:13:57.762Z,16.80
2019-05-07T13:16:27.229Z,16.90
2019-05-07T13:18:56.724Z,17.00
2019-05-07T13:21:26.196Z,17.00
2019-05-07T13:23:55.650Z,16.90
2019-05-07T13:26:25.173Z,16.80
2019-05-07T13:28:54.614Z,16.80
2019-05-07T13:31:27.558Z,16.80
2019-05-07T13:33:57.164Z,16.80
2019-05-07T13:36:27.309Z,16.80
2019-05-07T13:39:07.986Z,16.80
2019-05-07T13:41:54.459Z,16.80
2019-05-07T13:44:48.395Z,16.80
2019-05-07T13:47:25.668Z,16.80
2019-05-07T13:49:55.973Z,16.80
2019-05-07T13:52:26.055Z,16.80
2019-05-07T13:54:56.063Z,16.70
2019-05-07T13:57:25.547Z,16.70
2019-05-07T13:59:55.242Z,16.80
2019-05-07T14:02:27.667Z,16.80
2019-05-07T14:04:57.106Z,16.90
2019-05-07T14:07:28.441Z,17.00
2019-05-07T14:09:57.943Z,17.10
2019-05-07T14:12:27.415Z,17.20
2019-05-07T14:14:57.048Z,17.30
2019-05-07T14:17:26.509Z,17.40
2019-05-07T14:19:56.003Z,17.50
2019-05-07T14:22:25.514Z,17.60
2019-05-07T14:24:55.005Z,17.70
2019-05-07T14:27:24.482Z,17.80
2019-05-07T14:29:53.957Z,17.80
2019-05-07T14:32:32.047Z,17.80
2019-05-07T14:35:23.472Z,17.80
2019-05-07T14:37:56.802Z,17.80
2019-05-07T14:40:26.275Z,17.70
2019-05-07T14:43:03.532Z,17.80
2019-05-07T14:45:33.258Z,17.80
2019-05-07T14:48:03.000Z,17.80
2019-05-07T14:50:33.047Z,17.80
2019-05-07T14:53:02.880Z,17.80
2019-05-07T14:55:32.693Z,17.80
2019-05-07T14:58:02.349Z,17.80
2019-05-07T15:00:34.833Z,17.70
2019-05-07T15:03:03.306Z,17.70
2019-05-07T15:05:32.747Z,17.60
2019-05-07T15:08:10.466Z,17.60
2019-05-07T15:10:33.266Z,17.60
2019-05-07T15:13:02.680Z,17.70
2019-05-07T15:15:32.241Z,17.70
2019-05-07T15:18:07.454Z,17.80
2019-05-07T15:20:37.461Z,17.80
2019-05-07T15:23:13.716Z,17.90
2019-05-07T15:25:44.500Z,17.90
2019-05-07T15:28:14.833Z,17.80
2019-05-07T15:30:56.670Z,17.80
2019-05-07T15:33:26.665Z,17.70
2019-05-07T15:35:56.118Z,17.70
2019-05-07T15:38:25.585Z,17.60
2019-05-07T15:40:55.057Z,17.70
2019-05-07T15:43:24.515Z,17.60
2019-05-07T15:45:54.026Z,17.50
2019-05-07T15:48:23.500Z,17.40
2019-05-07T15:50:52.987Z,17.30
2019-05-07T15:53:29.622Z,17.30
2019-05-07T15:55:59.073Z,17.20
2019-05-07T15:58:28.868Z,17.20
2019-05-07T16:00:58.398Z,17.20
2019-05-07T16:03:35.460Z,17.20
2019-05-07T16:06:05.024Z,17.10
2019-05-07T16:08:38.641Z,17.00
2019-05-07T16:11:08.139Z,16.90
2019-05-07T16:13:41.985Z,16.90
2019-05-07T16:16:11.262Z,16.80
2019-05-07T16:19:01.768Z,16.80
2019-05-07T16:21:32.513Z,16.80
2019-05-07T16:24:03.897Z,16.80
2019-05-07T16:26:33.091Z,16.80
2019-05-07T16:29:04.578Z,16.90
2019-05-07T16:31:33.711Z,16.90
2019-05-07T16:34:03.173Z,16.90
2019-05-07T16:36:32.999Z,17.00
2019-05-07T16:39:03.482Z,17.00
2019-05-07T16:41:33.269Z,17.00
2019-05-07T16:44:02.988Z,17.00
2019-05-07T16:46:32.505Z,17.00
2019-05-07T16:49:02.323Z,17.00
2019-05-07T16:51:33.091Z,17.00
2019-05-07T16:54:03.429Z,17.00
2019-05-07T16:56:33.488Z,17.00
2019-05-07T16:59:07.468Z,17.00
2019-05-07T17:01:36.459Z,17.00
2019-05-07T17:04:06.004Z,17.00
2019-05-07T17:06:35.416Z,17.00
2019-05-07T17:09:14.346Z,17.10
2019-05-07T17:11:43.967Z,17.10
2019-05-07T17:14:13.569Z,17.10
2019-05-07T17:16:43.045Z,17.10
2019-05-07T17:19:13.967Z,17.10
2019-05-07T17:21:43.405Z,17.10
2019-05-07T17:24:12.894Z,17.10
2019-05-07T17:26:42.500Z,17.10
2019-05-07T17:29:12.163Z,17.10
2019-05-07T17:31:42.497Z,17.00
2019-05-07T17:34:12.215Z,17.00
2019-05-07T17:36:42.303Z,16.90
2019-05-07T17:39:12.306Z,16.90
2019-05-07T17:41:43.010Z,16.80
2019-05-07T17:44:12.834Z,16.80
2019-05-07T17:46:42.930Z,16.80
2019-05-07T17:49:13.252Z,16.80
2019-05-07T17:51:44.453Z,16.80
2019-05-07T17:54:14.720Z,16.70
2019-05-07T17:56:44.433Z,16.70
2019-05-07T17:59:13.939Z,16.60
2019-05-07T18:02:02.093Z,16.60
2019-05-07T18:04:47.674Z,16.60
2019-05-07T18:07:05.168Z,16.50
2019-05-07T18:09:34.603Z,16.50
2019-05-07T18:12:04.096Z,16.50
2019-05-07T18:14:33.571Z,16.40
2019-05-07T18:17:31.060Z,16.40
2019-05-07T18:20:02.159Z,16.40
2019-05-07T18:22:32.547Z,16.30
2019-05-07T18:25:02.176Z,16.30
2019-05-07T18:27:33.001Z,16.30
2019-05-07T18:30:02.948Z,16.20
2019-05-07T18:32:45.710Z,16.20
2019-05-07T18:35:15.156Z,16.10
2019-05-07T18:37:53.604Z,16.10
2019-05-07T18:40:23.438Z,16.10
2019-05-07T18:42:52.927Z,16.00
2019-05-07T18:45:22.419Z,16.00
2019-05-07T18:47:51.902Z,15.90
2019-05-07T18:50:22.500Z,15.90
2019-05-07T18:52:52.506Z,15.80
2019-05-07T18:55:22.687Z,15.70
2019-05-07T18:57:52.470Z,15.70
2019-05-07T19:00:31.620Z,15.60
2019-05-07T19:03:03.113Z,15.60
2019-05-07T19:05:31.859Z,15.60
2019-05-07T19:08:07.820Z,15.50
2019-05-07T19:10:32.918Z,15.50
2019-05-07T19:13:02.988Z,15.40
2019-05-07T19:15:32.976Z,15.40
2019-05-07T19:18:02.781Z,15.30
2019-05-07T19:20:32.818Z,15.30
2019-05-07T19:23:02.806Z,15.30
2019-05-07T19:25:32.839Z,15.30
2019-05-07T19:28:02.576Z,15.20
2019-05-07T19:30:32.636Z,15.20
2019-05-07T19:33:02.303Z,15.20
2019-05-07T19:35:32.782Z,15.10
2019-05-07T19:38:02.912Z,15.10
2019-05-07T19:40:32.698Z,15.10
2019-05-07T19:43:02.977Z,15.00
2019-05-07T19:45:32.885Z,15.00
2019-05-07T19:48:02.907Z,15.00
2019-05-07T19:50:32.650Z,15.00
2019-05-07T19:53:02.918Z,14.90
2019-05-07T19:55:52.574Z,14.90
2019-05-07T19:58:23.067Z,14.90
2019-05-07T20:00:57.061Z,14.90
2019-05-07T20:03:24.227Z,14.80
2019-05-07T20:05:53.730Z,14.80
2019-05-07T20:08:23.227Z,14.80
2019-05-07T20:10:58.342Z,14.70
2019-05-07T20:13:27.802Z,14.70
2019-05-07T20:16:12.256Z,14.70
2019-05-07T20:18:42.831Z,14.70
2019-05-07T20:21:12.626Z,14.60
2019-05-07T20:23:43.137Z,14.60
2019-05-07T20:26:12.921Z,14.60
2019-05-07T20:28:44.389Z,14.50
2019-05-07T20:31:13.867Z,14.50
2019-05-07T20:33:43.339Z,14.50
2019-05-07T20:36:12.839Z,14.50
2019-05-07T20:38:42.839Z,14.50
2019-05-07T20:41:13.698Z,14.40
2019-05-07T20:43:43.605Z,14.40
2019-05-07T20:46:13.207Z,14.40
2019-05-07T20:48:42.818Z,14.40
2019-05-07T20:51:12.734Z,14.40
2019-05-07T20:54:12.692Z,14.40
2019-05-07T20:56:46.862Z,14.40
2019-05-07T20:59:17.060Z,14.40
2019-05-07T21:01:46.549Z,14.40
2019-05-07T21:04:16.026Z,14.40
2019-05-07T21:06:45.517Z,14.40
2019-05-07T21:09:15.319Z,14.30
2019-05-07T21:11:44.773Z,14.40
2019-05-07T21:14:14.225Z,14.30
2019-05-07T21:16:43.707Z,14.40
2019-05-07T21:19:13.264Z,14.40
2019-05-07T21:21:42.728Z,14.30
2019-05-07T21:24:12.977Z,14.40
2019-05-07T21:26:42.858Z,14.40
2019-05-07T21:29:13.753Z,14.40
2019-05-07T21:31:43.603Z,14.40
2019-05-07T21:34:13.109Z,14.40
2019-05-07T21:36:43.234Z,14.40
2019-05-07T21:39:13.317Z,14.40
2019-05-07T21:41:42.975Z,14.40
2019-05-07T21:44:12.411Z,14.30
2019-05-07T21:46:42.560Z,14.40
2019-05-07T21:49:12.468Z,14.30
2019-05-07T21:51:41.918Z,14.30
2019-05-07T21:54:24.354Z,14.30
2019-05-07T21:57:17.603Z,14.30
2019-05-07T21:59:47.103Z,14.30
2019-05-07T22:02:23.253Z,14.30
2019-05-07T22:04:52.980Z,14.30
2019-05-07T22:07:22.879Z,14.30
2019-05-07T22:09:54.362Z,14.30
2019-05-07T22:12:23.709Z,14.20
2019-05-07T22:14:53.143Z,14.20
2019-05-07T22:17:22.611Z,14.20
2019-05-07T22:19:52.597Z,14.20
2019-05-07T22:22:24.142Z,14.20
2019-05-07T22:24:53.259Z,14.20
2019-05-07T22:27:22.731Z,14.20
2019-05-07T22:29:52.694Z,14.20
2019-05-07T22:32:44.110Z,14.20
2019-05-07T22:35:26.144Z,14.20
2019-05-07T22:37:55.634Z,14.10
2019-05-07T22:40:25.083Z,14.10
2019-05-07T22:42:55.375Z,14.10
2019-05-07T22:45:24.883Z,14.10
2019-05-07T22:47:54.405Z,14.10
2019-05-07T22:50:23.858Z,14.00
2019-05-07T22:52:54.448Z,14.10
2019-05-07T22:55:24.496Z,14.00
2019-05-07T22:58:13.987Z,14.00
2019-05-07T23:00:49.857Z,14.00
2019-05-07T23:03:19.325Z,14.00
2019-05-07T23:05:48.770Z,14.00
2019-05-07T23:08:18.278Z,14.00
2019-05-07T23:10:47.735Z,13.90
2019-05-07T23:13:17.154Z,13.90
2019-05-07T23:15:46.622Z,14.00
2019-05-07T23:18:16.080Z,14.00
2019-05-07T23:20:45.585Z,13.90
2019-05-07T23:23:15.072Z,13.90
2019-05-07T23:25:44.539Z,13.90
2019-05-07T23:28:14.046Z,13.90
2019-05-07T23:30:44.309Z,13.90
2019-05-07T23:33:14.075Z,13.90
2019-05-07T23:35:43.610Z,13.90
2019-05-07T23:38:15.865Z,13.90
2019-05-07T23:40:55.090Z,13.90
2019-05-07T23:43:24.554Z,13.90
2019-05-07T23:45:54.017Z,13.80
2019-05-07T23:48:23.515Z,13.80
2019-05-07T23:50:52.975Z,13.80
2019-05-07T23:53:22.580Z,13.80
2019-05-07T23:55:52.235Z,13.90
2019-05-07T23:58:23.074Z,13.80
